Accueil
METAR-TAF:

METAR-TAF

Aéroports :

Grenoble, France

Aéroport de Grenoble Alpes Isère

latitude: 45-22N, longitude: 005-20E, altitude: 384 m

Observation

Le bulletin a été fait il y a 35 minutes, à 09:00 UTC
Vent 7 kt de est
Température 20°C
Humidité 49%
Pression 1028 hPa
Visibilité 10 km ou plus
pas de nuages en-dessous de 1500 mètres et pas de cumulonimbus.

METAR: LFLS 190900Z AUTO 09007KT CAVOK 20/09 Q1028 NOSIG

Heure: 11:35 (09:35 UTC)

Prévision

Le bulletin a été fait il y a 1 heure et 35 minutes, à 08:00 UTC
Prévision valable du 19 à 09 UTC au 20 à 09 UTC
Vent 5 kt de est
Visibilité 10 km ou plus
pas de nuages en-dessous de 1500 mètres et pas de cumulonimbus.

TAF: LFLS 190800Z 1909/2009 09005KT CAVOK

Observations et prévisions météorologiques de plus de 4000 aéroports (messages METAR et TAF).

Les stations disponibles sont représentées par des disques jaunes et rouges sur la carte.

Passer la souris dessus pour voir le nom de la station.

Cliquer dessus pour voir les observations et prévisions météorologiques.

Pour changer de carte: cliquez sur les boutons verts avec une croix noire pour zoomer, sur le bouton vert avec un tiret pour effectuer un zoom arrière, ou sur les flèches vertes pour les cartes adjacentes.


METAR-TAF: